sensor_id;sensor_type;location;lat;lon;timestamp;pressure;altitude;pressure_sealevel;temperature;humidity
22755;BME280;11544;42.020;23.094;2023-10-31T00:02:11;97463.19;;;11.83;100.00
22755;BME280;11544;42.020;23.094;2023-10-31T00:04:38;97468.63;;;11.52;100.00
22755;BME280;11544;42.020;23.094;2023-10-31T00:07:05;97468.06;;;11.44;100.00
22755;BME280;11544;42.020;23.094;2023-10-31T00:09:32;97462.13;;;11.64;100.00
22755;BME280;11544;42.020;23.094;2023-10-31T00:11:58;97461.59;;;11.54;100.00
22755;BME280;11544;42.020;23.094;2023-10-31T00:14:26;97467.34;;;11.64;100.00
22755;BME280;11544;42.020;23.094;2023-10-31T00:16:58;97463.72;;;11.43;100.00
22755;BME280;11544;42.020;23.094;2023-10-31T00:19:25;97457.44;;;11.23;100.00
22755;BME280;11544;42.020;23.094;2023-10-31T00:21:52;97455.88;;;11.68;100.00
22755;BME280;11544;42.020;23.094;2023-10-31T00:24:19;97446.72;;;11.31;100.00
22755;BME280;11544;42.020;23.094;2023-10-31T00:26:46;97450.94;;;11.10;100.00
22755;BME280;11544;42.020;23.094;2023-10-31T00:29:12;97446.50;;;11.12;100.00
22755;BME280;11544;42.020;23.094;2023-10-31T00:31:39;97445.19;;;11.26;100.00
22755;BME280;11544;42.020;23.094;2023-10-31T00:34:09;97442.75;;;11.21;100.00
22755;BME280;11544;42.020;23.094;2023-10-31T00:36:36;97440.38;;;11.38;100.00
22755;BME280;11544;42.020;23.094;2023-10-31T00:39:03;97437.00;;;11.36;100.00
22755;BME280;11544;42.020;23.094;2023-10-31T00:41:30;97437.31;;;11.27;100.00
22755;BME280;11544;42.020;23.094;2023-10-31T00:43:57;97429.00;;;11.41;100.00
22755;BME280;11544;42.020;23.094;2023-10-31T00:46:24;97434.09;;;11.19;100.00
22755;BME280;11544;42.020;23.094;2023-10-31T00:48:51;97428.50;;;11.05;100.00
22755;BME280;11544;42.020;23.094;2023-10-31T00:51:18;97437.91;;;10.84;100.00
22755;BME280;11544;42.020;23.094;2023-10-31T00:53:45;97428.41;;;10.81;100.00
22755;BME280;11544;42.020;23.094;2023-10-31T00:56:12;97425.16;;;11.01;100.00
22755;BME280;11544;42.020;23.094;2023-10-31T00:58:39;97422.25;;;11.10;100.00
22755;BME280;11544;42.020;23.094;2023-10-31T01:01:06;97418.50;;;10.66;100.00
22755;BME280;11544;42.020;23.094;2023-10-31T01:03:32;97423.75;;;10.64;100.00
22755;BME280;11544;42.020;23.094;2023-10-31T01:05:59;97426.31;;;10.92;100.00
22755;BME280;11544;42.020;23.094;2023-10-31T01:08:26;97417.22;;;11.04;100.00
22755;BME280;11544;42.020;23.094;2023-10-31T01:10:53;97416.72;;;10.93;100.00
22755;BME280;11544;42.020;23.094;2023-10-31T01:13:20;97418.88;;;11.07;100.00
22755;BME280;11544;42.020;23.094;2023-10-31T01:15:47;97415.94;;;10.64;100.00
22755;BME280;11544;42.020;23.094;2023-10-31T01:18:14;97420.56;;;10.83;100.00
22755;BME280;11544;42.020;23.094;2023-10-31T01:20:41;97413.19;;;10.69;100.00
22755;BME280;11544;42.020;23.094;2023-10-31T01:23:08;97418.38;;;11.22;100.00
22755;BME280;11544;42.020;23.094;2023-10-31T01:25:35;97414.25;;;11.40;100.00
22755;BME280;11544;42.020;23.094;2023-10-31T01:28:02;97414.03;;;11.46;100.00
22755;BME280;11544;42.020;23.094;2023-10-31T01:30:28;97404.63;;;11.65;100.00
22755;BME280;11544;42.020;23.094;2023-10-31T01:32:55;97416.63;;;10.69;100.00
22755;BME280;11544;42.020;23.094;2023-10-31T01:35:22;97415.53;;;10.50;100.00
22755;BME280;11544;42.020;23.094;2023-10-31T01:37:49;97417.00;;;10.58;100.00
22755;BME280;11544;42.020;23.094;2023-10-31T01:40:16;97412.38;;;10.40;100.00
22755;BME280;11544;42.020;23.094;2023-10-31T01:42:43;97411.63;;;10.63;100.00
22755;BME280;11544;42.020;23.094;2023-10-31T01:45:10;97405.84;;;10.53;100.00
22755;BME280;11544;42.020;23.094;2023-10-31T01:47:37;97409.06;;;10.88;100.00
22755;BME280;11544;42.020;23.094;2023-10-31T01:50:06;97406.19;;;10.43;100.00
22755;BME280;11544;42.020;23.094;2023-10-31T01:52:33;97401.47;;;10.82;100.00
22755;BME280;11544;42.020;23.094;2023-10-31T01:55:02;97411.06;;;10.53;100.00
22755;BME280;11544;42.020;23.094;2023-10-31T01:57:30;97409.72;;;10.68;100.00
22755;BME280;11544;42.020;23.094;2023-10-31T01:59:57;97404.69;;;10.35;100.00
22755;BME280;11544;42.020;23.094;2023-10-31T02:02:25;97405.63;;;10.61;100.00
22755;BME280;11544;42.020;23.094;2023-10-31T02:04:53;97402.34;;;10.26;100.00
22755;BME280;11544;42.020;23.094;2023-10-31T02:07:20;97398.63;;;10.35;100.00
22755;BME280;11544;42.020;23.094;2023-10-31T02:09:47;97401.56;;;10.23;100.00
22755;BME280;11544;42.020;23.094;2023-10-31T02:12:35;97405.84;;;9.97;100.00
22755;BME280;11544;42.020;23.094;2023-10-31T02:15:02;97406.69;;;9.98;100.00
22755;BME280;11544;42.020;23.094;2023-10-31T02:17:29;97404.03;;;10.27;100.00
22755;BME280;11544;42.020;23.094;2023-10-31T02:19:56;97410.13;;;10.83;100.00
22755;BME280;11544;42.020;23.094;2023-10-31T02:22:23;97405.06;;;9.93;100.00
22755;BME280;11544;42.020;23.094;2023-10-31T02:24:51;97414.41;;;10.01;100.00
22755;BME280;11544;42.020;23.094;2023-10-31T02:27:17;97403.03;;;10.03;100.00
22755;BME280;11544;42.020;23.094;2023-10-31T02:29:44;97404.41;;;10.71;100.00
22755;BME280;11544;42.020;23.094;2023-10-31T02:32:11;97402.13;;;10.34;100.00
22755;BME280;11544;42.020;23.094;2023-10-31T02:34:38;97410.28;;;10.22;100.00
22755;BME280;11544;42.020;23.094;2023-10-31T02:37:05;97408.09;;;10.37;100.00
22755;BME280;11544;42.020;23.094;2023-10-31T02:39:32;97403.19;;;10.28;100.00
22755;BME280;11544;42.020;23.094;2023-10-31T02:41:59;97398.50;;;10.66;100.00
22755;BME280;11544;42.020;23.094;2023-10-31T02:44:26;97403.41;;;11.00;100.00
22755;BME280;11544;42.020;23.094;2023-10-31T02:46:53;97387.91;;;10.96;100.00
22755;BME280;11544;42.020;23.094;2023-10-31T02:49:20;97389.41;;;11.03;100.00
22755;BME280;11544;42.020;23.094;2023-10-31T02:51:47;97395.44;;;11.05;100.00
22755;BME280;11544;42.020;23.094;2023-10-31T02:54:14;97396.22;;;10.55;100.00
22755;BME280;11544;42.020;23.094;2023-10-31T02:56:41;97400.19;;;10.94;100.00
22755;BME280;11544;42.020;23.094;2023-10-31T02:59:08;97407.31;;;10.62;100.00
22755;BME280;11544;42.020;23.094;2023-10-31T03:01:35;97406.59;;;10.01;100.00
22755;BME280;11544;42.020;23.094;2023-10-31T03:04:03;97404.28;;;10.20;100.00
22755;BME280;11544;42.020;23.094;2023-10-31T03:06:29;97414.22;;;9.77;100.00
22755;BME280;11544;42.020;23.094;2023-10-31T03:08:56;97402.94;;;9.78;100.00
22755;BME280;11544;42.020;23.094;2023-10-31T03:11:24;97408.72;;;9.88;100.00
22755;BME280;11544;42.020;23.094;2023-10-31T03:13:52;97409.28;;;9.68;100.00
22755;BME280;11544;42.020;23.094;2023-10-31T03:16:20;97415.22;;;10.03;100.00
22755;BME280;11544;42.020;23.094;2023-10-31T03:18:47;97401.66;;;10.20;100.00
22755;BME280;11544;42.020;23.094;2023-10-31T03:21:14;97390.59;;;10.13;100.00
22755;BME280;11544;42.020;23.094;2023-10-31T03:23:43;97382.88;;;10.10;100.00
22755;BME280;11544;42.020;23.094;2023-10-31T03:26:10;97379.84;;;10.24;100.00
22755;BME280;11544;42.020;23.094;2023-10-31T03:28:36;97383.41;;;9.91;100.00
22755;BME280;11544;42.020;23.094;2023-10-31T03:31:03;97389.63;;;9.87;100.00
22755;BME280;11544;42.020;23.094;2023-10-31T03:33:30;97385.28;;;9.88;100.00
22755;BME280;11544;42.020;23.094;2023-10-31T03:35:57;97388.63;;;9.30;100.00
22755;BME280;11544;42.020;23.094;2023-10-31T03:38:25;97381.97;;;9.51;100.00
22755;BME280;11544;42.020;23.094;2023-10-31T03:40:52;97384.72;;;10.34;100.00
22755;BME280;11544;42.020;23.094;2023-10-31T03:43:19;97382.97;;;10.07;100.00
22755;BME280;11544;42.020;23.094;2023-10-31T03:45:46;97387.41;;;9.44;100.00
22755;BME280;11544;42.020;23.094;2023-10-31T03:48:15;97388.63;;;9.91;100.00
22755;BME280;11544;42.020;23.094;2023-10-31T03:50:42;97392.72;;;9.41;100.00
22755;BME280;11544;42.020;23.094;2023-10-31T03:53:09;97404.00;;;9.07;100.00
22755;BME280;11544;42.020;23.094;2023-10-31T03:55:36;97405.50;;;9.16;100.00
22755;BME280;11544;42.020;23.094;2023-10-31T03:58:03;97404.44;;;8.90;100.00
22755;BME280;11544;42.020;23.094;2023-10-31T04:00:32;97406.81;;;9.63;100.00
22755;BME280;11544;42.020;23.094;2023-10-31T04:02:59;97392.97;;;9.61;100.00
22755;BME280;11544;42.020;23.094;2023-10-31T04:05:26;97398.97;;;9.94;100.00
22755;BME280;11544;42.020;23.094;2023-10-31T04:07:53;97390.81;;;10.05;100.00
22755;BME280;11544;42.020;23.094;2023-10-31T04:10:20;97401.38;;;9.08;100.00
22755;BME280;11544;42.020;23.094;2023-10-31T04:12:48;97390.78;;;9.47;100.00
22755;BME280;11544;42.020;23.094;2023-10-31T04:15:14;97383.63;;;9.85;100.00
22755;BME280;11544;42.020;23.094;2023-10-31T04:17:41;97375.00;;;9.53;100.00
22755;BME280;11544;42.020;23.094;2023-10-31T04:20:08;97375.06;;;9.52;100.00
22755;BME280;11544;42.020;23.094;2023-10-31T04:22:35;97384.59;;;9.20;100.00
22755;BME280;11544;42.020;23.094;2023-10-31T04:25:03;97376.16;;;9.12;100.00
22755;BME280;11544;42.020;23.094;2023-10-31T04:27:30;97379.00;;;9.34;100.00
22755;BME280;11544;42.020;23.094;2023-10-31T04:29:56;97381.63;;;9.34;100.00
22755;BME280;11544;42.020;23.094;2023-10-31T04:32:23;97389.53;;;8.98;100.00
22755;BME280;11544;42.020;23.094;2023-10-31T04:34:50;97385.38;;;9.24;100.00
22755;BME280;11544;42.020;23.094;2023-10-31T04:37:17;97373.75;;;9.04;100.00
22755;BME280;11544;42.020;23.094;2023-10-31T04:39:44;97386.25;;;8.90;100.00
22755;BME280;11544;42.020;23.094;2023-10-31T04:42:11;97383.97;;;8.78;100.00
22755;BME280;11544;42.020;23.094;2023-10-31T04:44:37;97384.38;;;8.95;100.00
22755;BME280;11544;42.020;23.094;2023-10-31T04:47:04;97388.81;;;9.24;100.00
22755;BME280;11544;42.020;23.094;2023-10-31T04:49:31;97391.75;;;9.43;100.00
22755;BME280;11544;42.020;23.094;2023-10-31T04:52:00;97395.78;;;9.24;100.00
22755;BME280;11544;42.020;23.094;2023-10-31T04:54:27;97398.63;;;9.75;100.00
22755;BME280;11544;42.020;23.094;2023-10-31T04:56:54;97394.66;;;9.64;100.00
22755;BME280;11544;42.020;23.094;2023-10-31T04:59:22;97388.03;;;9.21;100.00
22755;BME280;11544;42.020;23.094;2023-10-31T05:01:50;97379.28;;;9.84;100.00
22755;BME280;11544;42.020;23.094;2023-10-31T05:04:21;97377.47;;;9.58;100.00
22755;BME280;11544;42.020;23.094;2023-10-31T05:06:48;97377.75;;;9.16;100.00
22755;BME280;11544;42.020;23.094;2023-10-31T05:09:15;97378.66;;;8.82;100.00
22755;BME280;11544;42.020;23.094;2023-10-31T05:11:42;97381.38;;;8.78;100.00
22755;BME280;11544;42.020;23.094;2023-10-31T05:14:09;97383.06;;;9.11;100.00
22755;BME280;11544;42.020;23.094;2023-10-31T05:16:40;97385.03;;;9.36;100.00
22755;BME280;11544;42.020;23.094;2023-10-31T05:19:07;97384.06;;;9.07;100.00
22755;BME280;11544;42.020;23.094;2023-10-31T05:21:34;97390.59;;;9.53;100.00
22755;BME280;11544;42.020;23.094;2023-10-31T05:24:01;97395.53;;;9.00;100.00
22755;BME280;11544;42.020;23.094;2023-10-31T05:26:28;97398.31;;;8.93;100.00
22755;BME280;11544;42.020;23.094;2023-10-31T05:28:57;97400.88;;;9.27;100.00
22755;BME280;11544;42.020;23.094;2023-10-31T05:31:24;97398.25;;;8.96;100.00
22755;BME280;11544;42.020;23.094;2023-10-31T05:33:52;97404.31;;;8.96;100.00
22755;BME280;11544;42.020;23.094;2023-10-31T05:36:23;97396.78;;;10.38;100.00
22755;BME280;11544;42.020;23.094;2023-10-31T05:38:51;97399.22;;;11.70;100.00
22755;BME280;11544;42.020;23.094;2023-10-31T05:41:18;97392.06;;;12.22;100.00
22755;BME280;11544;42.020;23.094;2023-10-31T05:43:45;97389.28;;;13.12;100.00
22755;BME280;11544;42.020;23.094;2023-10-31T05:46:12;97385.09;;;12.65;100.00
22755;BME280;11544;42.020;23.094;2023-10-31T05:48:44;97384.00;;;12.71;100.00
22755;BME280;11544;42.020;23.094;2023-10-31T05:51:18;97388.28;;;12.94;100.00
22755;BME280;11544;42.020;23.094;2023-10-31T05:53:46;97396.66;;;11.69;100.00
22755;BME280;11544;42.020;23.094;2023-10-31T05:56:15;97395.50;;;12.01;100.00
22755;BME280;11544;42.020;23.094;2023-10-31T05:58:43;97396.00;;;12.11;100.00
22755;BME280;11544;42.020;23.094;2023-10-31T06:01:10;97408.44;;;11.07;100.00
22755;BME280;11544;42.020;23.094;2023-10-31T06:03:36;97406.59;;;10.84;100.00
22755;BME280;11544;42.020;23.094;2023-10-31T06:06:04;97407.88;;;11.47;100.00
22755;BME280;11544;42.020;23.094;2023-10-31T06:08:31;97400.56;;;11.33;100.00
22755;BME280;11544;42.020;23.094;2023-10-31T06:10:58;97401.41;;;11.09;100.00
22755;BME280;11544;42.020;23.094;2023-10-31T06:13:25;97405.13;;;11.01;100.00
22755;BME280;11544;42.020;23.094;2023-10-31T06:15:56;97401.50;;;11.56;100.00
22755;BME280;11544;42.020;23.094;2023-10-31T06:18:27;97388.03;;;13.41;100.00
22755;BME280;11544;42.020;23.094;2023-10-31T06:20:55;97387.66;;;12.23;100.00
22755;BME280;11544;42.020;23.094;2023-10-31T06:23:22;97393.81;;;12.22;100.00
22755;BME280;11544;42.020;23.094;2023-10-31T06:25:49;97388.59;;;12.86;100.00
22755;BME280;11544;42.020;23.094;2023-10-31T06:28:16;97390.78;;;13.77;100.00
22755;BME280;11544;42.020;23.094;2023-10-31T06:30:43;97395.81;;;12.59;100.00
22755;BME280;11544;42.020;23.094;2023-10-31T06:33:10;97395.88;;;13.41;100.00
22755;BME280;11544;42.020;23.094;2023-10-31T06:35:38;97389.22;;;13.34;99.18
22755;BME280;11544;42.020;23.094;2023-10-31T06:38:05;97363.16;;;14.08;100.00
22755;BME280;11544;42.020;23.094;2023-10-31T06:40:32;97369.69;;;13.81;93.88
22755;BME280;11544;42.020;23.094;2023-10-31T06:43:00;97381.72;;;13.85;97.85
22755;BME280;11544;42.020;23.094;2023-10-31T06:45:28;97385.88;;;14.27;97.18
22755;BME280;11544;42.020;23.094;2023-10-31T06:47:54;97386.97;;;14.04;94.56
22755;BME280;11544;42.020;23.094;2023-10-31T06:50:21;97389.47;;;14.97;91.71
22755;BME280;11544;42.020;23.094;2023-10-31T06:52:49;97382.34;;;14.09;86.94
22755;BME280;11544;42.020;23.094;2023-10-31T06:55:16;97392.06;;;14.07;90.48
22755;BME280;11544;42.020;23.094;2023-10-31T06:57:42;97381.56;;;14.62;91.25
22755;BME280;11544;42.020;23.094;2023-10-31T07:00:13;97369.13;;;15.86;79.21
22755;BME280;11544;42.020;23.094;2023-10-31T07:02:41;97377.19;;;15.83;78.90
22755;BME280;11544;42.020;23.094;2023-10-31T07:05:08;97363.28;;;15.63;79.94
22755;BME280;11544;42.020;23.094;2023-10-31T07:07:35;97371.81;;;15.51;77.81
22755;BME280;11544;42.020;23.094;2023-10-31T07:10:03;97371.03;;;13.70;86.36
22755;BME280;11544;42.020;23.094;2023-10-31T07:12:30;97370.25;;;14.43;93.27
22755;BME280;11544;42.020;23.094;2023-10-31T07:14:56;97367.59;;;15.82;80.25
22755;BME280;11544;42.020;23.094;2023-10-31T07:17:25;97357.50;;;16.06;79.94
22755;BME280;11544;42.020;23.094;2023-10-31T07:19:53;97356.66;;;16.37;77.03
22755;BME280;11544;42.020;23.094;2023-10-31T07:22:19;97360.72;;;14.95;87.96
22755;BME280;11544;42.020;23.094;2023-10-31T07:24:46;97358.22;;;16.56;75.61
22755;BME280;11544;42.020;23.094;2023-10-31T07:27:13;97357.94;;;16.30;72.28
22755;BME280;11544;42.020;23.094;2023-10-31T07:29:40;97354.25;;;15.36;83.02
22755;BME280;11544;42.020;23.094;2023-10-31T07:32:08;97349.44;;;16.25;74.35
22755;BME280;11544;42.020;23.094;2023-10-31T07:34:40;97337.91;;;15.80;74.66
22755;BME280;11544;42.020;23.094;2023-10-31T07:37:08;97333.66;;;15.77;79.64
22755;BME280;11544;42.020;23.094;2023-10-31T07:39:36;97323.72;;;16.92;72.79
22755;BME280;11544;42.020;23.094;2023-10-31T07:42:03;97320.22;;;16.91;71.92
22755;BME280;11544;42.020;23.094;2023-10-31T07:44:30;97309.41;;;16.66;73.19
22755;BME280;11544;42.020;23.094;2023-10-31T07:46:56;97309.22;;;16.39;73.46
22755;BME280;11544;42.020;23.094;2023-10-31T07:49:24;97307.28;;;15.30;81.80
22755;BME280;11544;42.020;23.094;2023-10-31T07:51:50;97315.47;;;16.52;80.28
22755;BME280;11544;42.020;23.094;2023-10-31T07:54:17;97315.06;;;17.04;74.78
22755;BME280;11544;42.020;23.094;2023-10-31T07:56:45;97314.50;;;16.99;73.68
22755;BME280;11544;42.020;23.094;2023-10-31T07:59:12;97309.72;;;17.06;71.22
22755;BME280;11544;42.020;23.094;2023-10-31T08:01:39;97299.75;;;17.11;72.32
22755;BME280;11544;42.020;23.094;2023-10-31T08:04:06;97299.63;;;16.38;71.80
22755;BME280;11544;42.020;23.094;2023-10-31T08:06:33;97298.50;;;16.88;78.24
22755;BME280;11544;42.020;23.094;2023-10-31T08:09:00;97297.47;;;17.48;72.01
22755;BME280;11544;42.020;23.094;2023-10-31T08:11:27;97296.63;;;16.90;74.18
22755;BME280;11544;42.020;23.094;2023-10-31T08:13:54;97288.72;;;17.04;77.76
22755;BME280;11544;42.020;23.094;2023-10-31T08:16:20;97294.81;;;16.60;77.98
22755;BME280;11544;42.020;23.094;2023-10-31T08:18:48;97280.94;;;17.31;69.06
22755;BME280;11544;42.020;23.094;2023-10-31T08:21:15;97263.34;;;17.18;71.98
22755;BME280;11544;42.020;23.094;2023-10-31T08:23:42;97267.00;;;15.94;77.80
22755;BME280;11544;42.020;23.094;2023-10-31T08:26:11;97251.50;;;15.58;82.26
22755;BME280;11544;42.020;23.094;2023-10-31T08:28:39;97255.81;;;15.43;86.19
22755;BME280;11544;42.020;23.094;2023-10-31T08:31:06;97232.91;;;17.84;73.39
22755;BME280;11544;42.020;23.094;2023-10-31T08:33:33;97236.88;;;18.04;69.51
22755;BME280;11544;42.020;23.094;2023-10-31T08:36:00;97232.47;;;18.57;68.87
22755;BME280;11544;42.020;23.094;2023-10-31T08:38:27;97235.91;;;17.63;70.04
22755;BME280;11544;42.020;23.094;2023-10-31T08:40:58;97236.47;;;18.10;67.80
22755;BME280;11544;42.020;23.094;2023-10-31T08:43:26;97221.22;;;19.06;64.67
22755;BME280;11544;42.020;23.094;2023-10-31T08:45:53;97219.81;;;18.75;64.51
22755;BME280;11544;42.020;23.094;2023-10-31T08:48:20;97201.00;;;19.67;60.35
22755;BME280;11544;42.020;23.094;2023-10-31T08:50:47;97191.72;;;19.12;64.50
22755;BME280;11544;42.020;23.094;2023-10-31T08:53:14;97196.75;;;19.41;64.11
22755;BME280;11544;42.020;23.094;2023-10-31T08:55:41;97188.66;;;19.18;63.33
22755;BME280;11544;42.020;23.094;2023-10-31T08:58:14;97185.91;;;19.94;58.11
22755;BME280;11544;42.020;23.094;2023-10-31T09:00:41;97175.97;;;19.73;60.91
22755;BME280;11544;42.020;23.094;2023-10-31T09:03:08;97171.31;;;20.12;58.01
22755;BME280;11544;42.020;23.094;2023-10-31T09:05:35;97158.41;;;20.43;57.48
22755;BME280;11544;42.020;23.094;2023-10-31T09:08:02;97157.75;;;19.32;61.73
22755;BME280;11544;42.020;23.094;2023-10-31T09:10:29;97155.03;;;19.70;62.27
22755;BME280;11544;42.020;23.094;2023-10-31T09:12:56;97146.03;;;19.60;61.46
22755;BME280;11544;42.020;23.094;2023-10-31T09:15:23;97143.47;;;19.95;60.24
22755;BME280;11544;42.020;23.094;2023-10-31T09:17:50;97130.28;;;20.53;57.93
22755;BME280;11544;42.020;23.094;2023-10-31T09:20:17;97115.41;;;20.75;58.96
22755;BME280;11544;42.020;23.094;2023-10-31T09:22:44;97111.19;;;21.17;56.13
22755;BME280;11544;42.020;23.094;2023-10-31T09:25:11;97104.22;;;20.82;57.60
22755;BME280;11544;42.020;23.094;2023-10-31T09:27:40;97092.38;;;21.09;56.57
22755;BME280;11544;42.020;23.094;2023-10-31T09:30:07;97091.28;;;21.45;56.27
22755;BME280;11544;42.020;23.094;2023-10-31T09:32:35;97088.31;;;21.92;54.71
22755;BME280;11544;42.020;23.094;2023-10-31T09:35:03;97093.59;;;21.92;55.00
22755;BME280;11544;42.020;23.094;2023-10-31T09:37:30;97075.03;;;22.13;52.36
22755;BME280;11544;42.020;23.094;2023-10-31T09:39:56;97079.13;;;21.64;55.07
22755;BME280;11544;42.020;23.094;2023-10-31T09:42:23;97072.38;;;22.24;53.06
22755;BME280;11544;42.020;23.094;2023-10-31T09:44:50;97060.50;;;22.49;51.49
22755;BME280;11544;42.020;23.094;2023-10-31T09:47:17;97057.59;;;22.31;53.35
22755;BME280;11544;42.020;23.094;2023-10-31T09:49:44;97051.09;;;22.45;51.64
22755;BME280;11544;42.020;23.094;2023-10-31T09:52:11;97043.91;;;22.67;49.07
22755;BME280;11544;42.020;23.094;2023-10-31T09:54:39;97034.25;;;22.96;50.05
22755;BME280;11544;42.020;23.094;2023-10-31T09:57:10;97027.38;;;22.53;51.69
22755;BME280;11544;42.020;23.094;2023-10-31T09:59:37;97031.78;;;22.74;51.15
22755;BME280;11544;42.020;23.094;2023-10-31T10:02:04;97024.69;;;22.23;49.60
22755;BME280;11544;42.020;23.094;2023-10-31T10:04:31;97028.13;;;22.34;50.41
22755;BME280;11544;42.020;23.094;2023-10-31T10:07:01;97019.94;;;22.47;48.56
22755;BME280;11544;42.020;23.094;2023-10-31T10:09:28;97017.84;;;22.51;46.94
22755;BME280;11544;42.020;23.094;2023-10-31T10:11:56;97027.16;;;22.66;46.35
22755;BME280;11544;42.020;23.094;2023-10-31T10:14:24;97014.47;;;22.49;46.04
22755;BME280;11544;42.020;23.094;2023-10-31T10:16:51;97004.09;;;22.36;46.18
22755;BME280;11544;42.020;23.094;2023-10-31T10:19:20;97005.31;;;22.62;45.83
22755;BME280;11544;42.020;23.094;2023-10-31T10:21:48;96989.25;;;22.64;45.44
22755;BME280;11544;42.020;23.094;2023-10-31T10:24:17;96998.69;;;22.47;46.68
22755;BME280;11544;42.020;23.094;2023-10-31T10:26:44;96992.63;;;22.35;46.41
22755;BME280;11544;42.020;23.094;2023-10-31T10:29:12;96990.66;;;22.28;47.66
22755;BME280;11544;42.020;23.094;2023-10-31T10:31:39;96996.00;;;22.16;47.60
22755;BME280;11544;42.020;23.094;2023-10-31T10:34:11;96984.22;;;22.30;47.22
22755;BME280;11544;42.020;23.094;2023-10-31T10:36:40;96975.09;;;22.54;46.97
22755;BME280;11544;42.020;23.094;2023-10-31T10:39:07;96970.31;;;22.48;47.39
22755;BME280;11544;42.020;23.094;2023-10-31T10:41:37;96963.53;;;22.74;46.48
22755;BME280;11544;42.020;23.094;2023-10-31T10:44:07;96958.94;;;22.86;46.50
22755;BME280;11544;42.020;23.094;2023-10-31T10:46:36;96955.47;;;22.95;45.67
22755;BME280;11544;42.020;23.094;2023-10-31T10:49:05;96951.13;;;22.85;46.54
22755;BME280;11544;42.020;23.094;2023-10-31T10:51:46;96952.16;;;23.03;46.07
22755;BME280;11544;42.020;23.094;2023-10-31T10:54:19;96936.31;;;22.82;47.04
22755;BME280;11544;42.020;23.094;2023-10-31T10:56:55;96936.13;;;22.74;47.13
22755;BME280;11544;42.020;23.094;2023-10-31T11:02:03;96934.16;;;22.56;46.86
22755;BME280;11544;42.020;23.094;2023-10-31T11:04:33;96926.91;;;22.68;46.81
22755;BME280;11544;42.020;23.094;2023-10-31T11:07:02;96929.72;;;22.76;45.79
22755;BME280;11544;42.020;23.094;2023-10-31T11:09:31;96923.44;;;22.77;46.95
22755;BME280;11544;42.020;23.094;2023-10-31T11:12:00;96919.03;;;22.47;46.02
22755;BME280;11544;42.020;23.094;2023-10-31T11:14:26;96907.97;;;22.11;45.69
22755;BME280;11544;42.020;23.094;2023-10-31T11:16:56;96911.91;;;22.17;46.32
22755;BME280;11544;42.020;23.094;2023-10-31T11:19:27;96906.44;;;22.39;46.32
22755;BME280;11544;42.020;23.094;2023-10-31T11:21:58;96898.75;;;22.56;46.69
22755;BME280;11544;42.020;23.094;2023-10-31T11:24:28;96890.19;;;22.33;47.48
22755;BME280;11544;42.020;23.094;2023-10-31T11:26:59;96883.38;;;22.40;47.09
22755;BME280;11544;42.020;23.094;2023-10-31T11:29:26;96878.28;;;22.27;47.77
22755;BME280;11544;42.020;23.094;2023-10-31T11:31:57;96874.69;;;22.28;47.46
22755;BME280;11544;42.020;23.094;2023-10-31T11:34:32;96866.78;;;22.17;47.91
22755;BME280;11544;42.020;23.094;2023-10-31T11:37:26;96866.34;;;22.12;48.07
22755;BME280;11544;42.020;23.094;2023-10-31T11:42:41;96842.84;;;22.07;48.94
22755;BME280;11544;42.020;23.094;2023-10-31T11:45:08;96841.00;;;22.38;48.98
22755;BME280;11544;42.020;23.094;2023-10-31T11:47:49;96839.91;;;22.51;49.52
22755;BME280;11544;42.020;23.094;2023-10-31T11:50:17;96838.53;;;22.56;49.57
22755;BME280;11544;42.020;23.094;2023-10-31T11:52:44;96819.53;;;22.51;49.10
22755;BME280;11544;42.020;23.094;2023-10-31T11:55:12;96830.97;;;22.61;48.70
22755;BME280;11544;42.020;23.094;2023-10-31T11:57:39;96821.75;;;22.85;48.43
22755;BME280;11544;42.020;23.094;2023-10-31T12:00:06;96827.38;;;22.82;48.46
22755;BME280;11544;42.020;23.094;2023-10-31T12:02:37;96820.66;;;22.78;48.69
22755;BME280;11544;42.020;23.094;2023-10-31T12:05:13;96814.75;;;22.35;49.42
22755;BME280;11544;42.020;23.094;2023-10-31T12:07:45;96806.78;;;22.45;49.42
22755;BME280;11544;42.020;23.094;2023-10-31T12:10:13;96793.63;;;22.34;49.66
22755;BME280;11544;42.020;23.094;2023-10-31T12:12:48;96785.97;;;22.50;50.21
22755;BME280;11544;42.020;23.094;2023-10-31T12:15:15;96784.41;;;22.38;49.82
22755;BME280;11544;42.020;23.094;2023-10-31T12:17:42;96794.03;;;22.39;50.14
22755;BME280;11544;42.020;23.094;2023-10-31T12:20:10;96793.91;;;22.40;50.20
22755;BME280;11544;42.020;23.094;2023-10-31T12:22:37;96792.50;;;22.46;50.02
22755;BME280;11544;42.020;23.094;2023-10-31T12:25:07;96810.13;;;22.37;50.38
22755;BME280;11544;42.020;23.094;2023-10-31T12:27:47;96806.97;;;22.13;50.66
22755;BME280;11544;42.020;23.094;2023-10-31T12:30:17;96804.44;;;22.02;49.60
22755;BME280;11544;42.020;23.094;2023-10-31T12:32:45;96810.59;;;22.12;49.62
22755;BME280;11544;42.020;23.094;2023-10-31T12:35:14;96797.88;;;22.15;49.53
22755;BME280;11544;42.020;23.094;2023-10-31T12:37:45;96795.38;;;22.04;49.42
22755;BME280;11544;42.020;23.094;2023-10-31T12:40:16;96795.09;;;22.07;48.81
22755;BME280;11544;42.020;23.094;2023-10-31T12:42:44;96788.22;;;21.95;48.68
22755;BME280;11544;42.020;23.094;2023-10-31T12:45:12;96792.25;;;21.99;47.91
22755;BME280;11544;42.020;23.094;2023-10-31T12:47:40;96781.94;;;22.06;48.01
22755;BME280;11544;42.020;23.094;2023-10-31T12:50:15;96777.81;;;22.23;47.66
22755;BME280;11544;42.020;23.094;2023-10-31T12:52:47;96773.44;;;22.02;45.99
22755;BME280;11544;42.020;23.094;2023-10-31T12:55:25;96766.72;;;21.98;45.94
22755;BME280;11544;42.020;23.094;2023-10-31T12:57:53;96771.03;;;21.99;46.29